CSZ3 weather

Mont-Tremblant / St-Jovite Airport
Mont-Tremblant, Quebec, Canada

Public forecast

Using degrees Celsius for public forecast. Weather courtesy of forecast.io.

Closest aviation weather report (METAR) to Mont-Tremblant / St-Jovite Airport

Closest report is Montreal International (Mirabel) Airport, 36.5 nm (67.6 km) SE. Retrieved 2020/06/01 03:00 UTC (16 minutes ago):

CYMX 010300Z 26004KT 25SM BKN140 05/04 A3014 RMK AC5 SLP211

Closest aviation forecast (TAF) to Mont-Tremblant / St-Jovite Airport

Closest forecast is Montreal International (Mirabel) Airport, 36.5 nm (67.6 km) SE. Retrieved 2020-06-01 00:42 UTC (3 hours ago):

TAF CYMX 312338Z 0100/0124 30007KT P6SM SCT050 BKN080 TEMPO 0100/0106 P6SM -SHRA BKN050 FM011200 27006KT P6SM SCT040 FM011600 27008KT P6SM BKN040 TEMPO 0116/0124 P6SM -SHRA BECMG 0119/0121 31010G20KT RMK NXT FCST BY 010600Z